Flight Track Log - Related Links

Times and Time Zones

All times are in EDT time to prevent confusion due to time zone crossing. See the ASQ6127 flight status page for this flight to view local times or setup timezone preferences in your user account.

Time Position Orientation Groundspeed Altitude Reporting Facility
EDT Latitude Longitude Course Direction KTS MPH feet Rate Location/Type
Sat 01:40:40 PM 38.9833 -77.5500 322° Northwest 214 246 3,200  Level Potomac TRACON
Sat 01:41:40 PM 39.0333 -77.6000 322° Northwest 235 270 6,000 2,368 Climbing Potomac TRACON
Sat 01:43:12 PM 39.1347 -77.5772 10° North 265 305 9,200 2,160 Climbing Washington Center
Sat 01:44:10 PM 39.2100 -77.5578 11° North 260 299 11,400 2,118 Climbing Washington Center
Sat 01:45:11 PM 39.2875 -77.5411 North 265 305 13,400 1,835 Climbing Washington Center
Sat 01:46:11 PM 39.3689 -77.5217 10° North 276 318 15,100 1,835 Climbing Washington Center
Sat 01:47:12 PM 39.4528 -77.4997 11° North 295 339 17,100 1,860 Climbing Washington Center
Sat 01:49:31 PM 39.6572 -77.4561 North 317 365 21,300 1,797 Climbing New York Center
Sat 01:50:29 PM 39.7489 -77.4542 North 317 365 23,000 1,678 Climbing New York Center
Sat 01:51:29 PM 39.8453 -77.4497 North 322 371 24,600 1,587 Climbing New York Center
Sat 01:52:30 PM 39.9375 -77.4397 North 329 379 26,200 1,377 Climbing New York Center
Sat 01:53:31 PM 40.0347 -77.4542 354° North 335 386 27,400 1,210 Climbing New York Center
Sat 01:54:29 PM 40.1319 -77.4692 353° North 346 398 28,600 1,160 Climbing New York Center
Sat 01:55:30 PM 40.2308 -77.4894 351° North 351 404 29,700 1,131 Climbing New York Center
Sat 01:56:31 PM 40.3297 -77.5072 352° North 356 410 30,900 645 Climbing New York Center
Sat 01:57:31 PM 40.4369 -77.5286 351° North 369 425 31,000 600 Climbing New York Center
Sat 01:58:31 PM 40.5431 -77.4953 13° North 421 484 32,100 1,000 Climbing New York Center
Sat 01:59:31 PM 40.6542 -77.4514 17° North 415 478 33,000 513 Climbing New York Center
Sat 02:00:28 PM 40.7714 -77.4025 18° North 427 491 33,100 908 Climbing New York Center
Sat 02:01:30 PM 40.8864 -77.3589 16° North 427 491 34,800 934 Climbing New York Center
Sat 02:02:30 PM 41.0119 -77.3106 16° North 427 491 35,000 100 Climbing New York Center
Sat 02:03:30 PM 41.1336 -77.2617 17° North 439 505 35,000  Level New York Center
Sat 02:04:31 PM 41.2614 -77.2103 17° North 449 517 35,000  Level New York Center
Sat 02:05:29 PM 41.3869 -77.1586 17° North 462 532 35,000  Level New York Center
Sat 02:06:29 PM 41.5019 -77.1114 17° North 473 544 35,000  Level New York Center
Sat 02:10:51 PM 42.0506 -76.8864 17° North 472 543 35,000  Level Boston Center
Sat 02:11:51 PM 42.1778 -76.8336 17° North 472 543 35,000  Level Boston Center
Sat 02:12:51 PM 42.3069 -76.7781 18° North 472 543 35,000  Level Boston Center
Sat 02:13:51 PM 42.4300 -76.7247 18° North 472 543 35,000  Level Boston Center
Sat 02:14:51 PM 42.5272 -76.6864 16° North 466 536 35,000  Level Boston Center
Sat 02:15:51 PM 42.6714 -76.6256 17° North 456 525 35,000  Level Boston Center
Sat 02:16:51 PM 42.7922 -76.5744 17° North 456 525 35,000  Level Boston Center
Sat 02:17:51 PM 42.9172 -76.5203 18° North 456 525 35,000  Level Boston Center
Sat 02:18:51 PM 43.0442 -76.4664 17° North 462 532 35,000  Level Boston Center
Sat 02:19:51 PM 43.1733 -76.4122 17° North 468 539 35,000 -50 Level Boston Center
Sat 02:20:51 PM 43.3067 -76.3553 17° North 485 558 34,900  Descending Boston Center
Sat 02:22:03 PM 43.4358 -76.2947 19° North 485 558 35,000 -136 Climbing Boston Center
Sat 02:23:03 PM 43.5903 -76.2300 17° North 479 551 34,600 -1,100 Descending Boston Center
Sat 02:24:03 PM 43.7108 -76.1744 18° North 472 543 32,800 -1,950 Descending Boston Center
Sat 02:25:03 PM 43.8378 -76.1189 18° North 467 537 30,700 -2,100 Descending Boston Center
Sat 02:26:03 PM 43.9372 -76.0733 18° North 467 537 28,600 -1,350 Descending Boston Center
Sat 02:27:03 PM 44.0797 -75.9836 24° Northeast 467 537 28,000 -273 Descending Boston Center
Sat 02:28:15 PM 44.2050 -75.9011 25° Northeast 474 545 28,000 -1,273 Level Boston Center
Sat 02:29:15 PM 44.3539 -75.8025 25° Northeast 486 559 25,200 -3,237 Descending Boston Center
Sat 02:29:31 PM 44.3833 -75.7833 25° Northeast 490 564 23,900 -3,474 Descending Montreal Center
Sat 02:30:31 PM 44.5000 -75.6833 31° Northeast 480 552 20,800 -3,150 Descending Montreal Center
Sat 02:31:31 PM 44.6167 -75.6167 22° Northeast 450 518 17,600 -2,950 Descending Montreal Center
Sat 02:32:31 PM 44.7167 -75.5500 25° Northeast 420 483 14,900 -2,350 Descending Montreal Center
Sat 02:33:31 PM 44.8167 -75.5167 13° North 380 437 12,900 -1,800 Descending Montreal Center
Sat 02:34:31 PM 44.9000 -75.5167 360° North 330 380 11,300 -1,700 Descending Montreal Center
Sat 02:35:31 PM 45.0000 -75.5167 360° North 310 357 9,500 -1,700 Descending Montreal Center
Sat 02:36:31 PM 45.0667 -75.5000 10° North 300 345 7,900 -1,750 Descending Montreal Center
Sat 02:37:31 PM 45.1500 -75.4500 23° Northeast 280 322 6,000 -2,000 Descending Montreal Center
Sat 02:38:31 PM 45.2000 -75.4667 347° North 230 265 3,900 -1,700 Descending Montreal Center
Sat 02:39:31 PM 45.2333 -75.5333 305° West 180 207 2,600 -1,100 Descending Montreal Center
Sat 02:40:31 PM 45.2500 -75.5833 295° West 130 150 1,700 -750 Descending Montreal Center
Sat 02:41:31 PM 45.2833 -75.6167 325° Northwest 130 150 1,100 -600 Descending Montreal Center
Sat 02:42:31 PM 45.3000 -75.6667 295° West 130 150 500 -600 Descending Montreal Center

Login

Don't have an account? Register now (free) for customized features, flight alerts, and more!